sensor_id;sensor_type;location;lat;lon;timestamp;pressure;altitude;pressure_sealevel;temperature;humidity
29239;BME280;16267;48.194;11.546;2023-05-09T00:00:23;96325.47;;;13.81;63.30
29239;BME280;16267;48.194;11.546;2023-05-09T00:02:49;96330.09;;;13.81;63.93
29239;BME280;16267;48.194;11.546;2023-05-09T00:05:15;96324.34;;;13.79;64.14
29239;BME280;16267;48.194;11.546;2023-05-09T00:07:41;96329.38;;;13.77;64.19
29239;BME280;16267;48.194;11.546;2023-05-09T00:10:07;96321.72;;;13.75;64.38
29239;BME280;16267;48.194;11.546;2023-05-09T00:12:33;96315.97;;;13.73;64.57
29239;BME280;16267;48.194;11.546;2023-05-09T00:14:59;96320.59;;;13.73;64.77
29239;BME280;16267;48.194;11.546;2023-05-09T00:17:26;96321.00;;;13.71;64.94
29239;BME280;16267;48.194;11.546;2023-05-09T00:19:53;96318.31;;;13.71;65.04
29239;BME280;16267;48.194;11.546;2023-05-09T00:22:20;96317.19;;;13.69;65.18
29239;BME280;16267;48.194;11.546;2023-05-09T00:24:49;96308.00;;;13.66;65.34
29239;BME280;16267;48.194;11.546;2023-05-09T00:27:15;96314.56;;;13.65;65.52
29239;BME280;16267;48.194;11.546;2023-05-09T00:29:41;96313.81;;;13.65;65.62
29239;BME280;16267;48.194;11.546;2023-05-09T00:32:07;96308.81;;;13.63;65.80
29239;BME280;16267;48.194;11.546;2023-05-09T00:34:33;96307.69;;;13.60;65.58
29239;BME280;16267;48.194;11.546;2023-05-09T00:36:59;96316.97;;;13.59;66.15
29239;BME280;16267;48.194;11.546;2023-05-09T00:39:26;96312.41;;;13.56;65.95
29239;BME280;16267;48.194;11.546;2023-05-09T00:41:54;96313.22;;;13.53;65.97
29239;BME280;16267;48.194;11.546;2023-05-09T00:44:20;96310.94;;;13.52;65.89
29239;BME280;16267;48.194;11.546;2023-05-09T00:46:46;96307.13;;;13.49;66.14
29239;BME280;16267;48.194;11.546;2023-05-09T00:49:12;96307.94;;;13.46;66.19
29239;BME280;16267;48.194;11.546;2023-05-09T00:51:39;96308.03;;;13.43;66.51
29239;BME280;16267;48.194;11.546;2023-05-09T00:54:07;96300.31;;;13.41;66.58
29239;BME280;16267;48.194;11.546;2023-05-09T00:56:33;96307.31;;;13.38;66.48
29239;BME280;16267;48.194;11.546;2023-05-09T00:58:59;96300.41;;;13.37;66.73
29239;BME280;16267;48.194;11.546;2023-05-09T01:01:25;96301.22;;;13.34;66.63
29239;BME280;16267;48.194;11.546;2023-05-09T01:03:52;96296.66;;;13.31;66.45
29239;BME280;16267;48.194;11.546;2023-05-09T01:10:00;96293.22;;;13.27;66.83
29239;BME280;16267;48.194;11.546;2023-05-09T01:13:26;96284.44;;;13.23;66.96
29239;BME280;16267;48.194;11.546;2023-05-09T01:18:46;96281.06;;;13.15;67.52
29239;BME280;16267;48.194;11.546;2023-05-09T01:21:19;96270.34;;;13.12;67.84
29239;BME280;16267;48.194;11.546;2023-05-09T01:29:44;96272.81;;;13.03;67.91
29239;BME280;16267;48.194;11.546;2023-05-09T01:32:23;96273.63;;;13.00;68.39
29239;BME280;16267;48.194;11.546;2023-05-09T01:34:52;96272.53;;;12.97;67.99
29239;BME280;16267;48.194;11.546;2023-05-09T01:37:23;96270.28;;;12.92;68.71
29239;BME280;16267;48.194;11.546;2023-05-09T01:39:57;96268.81;;;12.87;68.81
29239;BME280;16267;48.194;11.546;2023-05-09T01:42:32;96274.25;;;12.84;68.86
29239;BME280;16267;48.194;11.546;2023-05-09T01:44:58;96268.09;;;12.83;68.83
29239;BME280;16267;48.194;11.546;2023-05-09T01:47:24;96274.72;;;12.79;68.60
29239;BME280;16267;48.194;11.546;2023-05-09T01:50:02;96269.72;;;12.77;68.51
29239;BME280;16267;48.194;11.546;2023-05-09T01:52:30;96273.22;;;12.74;68.85
29239;BME280;16267;48.194;11.546;2023-05-09T01:54:58;96267.13;;;12.70;69.07
29239;BME280;16267;48.194;11.546;2023-05-09T01:57:26;96272.56;;;12.66;69.31
29239;BME280;16267;48.194;11.546;2023-05-09T01:59:54;96268.78;;;12.64;69.50
29239;BME280;16267;48.194;11.546;2023-05-09T02:02:20;96262.25;;;12.61;69.40
29239;BME280;16267;48.194;11.546;2023-05-09T02:04:47;96257.69;;;12.58;69.31
29239;BME280;16267;48.194;11.546;2023-05-09T02:07:14;96258.09;;;12.57;68.99
29239;BME280;16267;48.194;11.546;2023-05-09T02:09:39;96255.44;;;12.53;69.52
29239;BME280;16267;48.194;11.546;2023-05-09T02:12:06;96256.59;;;12.52;69.33
29239;BME280;16267;48.194;11.546;2023-05-09T02:14:32;96246.66;;;12.49;69.74
29239;BME280;16267;48.194;11.546;2023-05-09T02:17:00;96252.44;;;12.47;69.37
29239;BME280;16267;48.194;11.546;2023-05-09T02:19:32;96250.16;;;12.46;69.41
29239;BME280;16267;48.194;11.546;2023-05-09T02:21:58;96248.28;;;12.43;69.77
29239;BME280;16267;48.194;11.546;2023-05-09T02:24:25;96250.59;;;12.41;69.84
29239;BME280;16267;48.194;11.546;2023-05-09T02:26:51;96245.28;;;12.37;69.45
29239;BME280;16267;48.194;11.546;2023-05-09T02:29:20;96244.16;;;12.35;69.39
29239;BME280;16267;48.194;11.546;2023-05-09T02:31:47;96246.47;;;12.33;69.43
29239;BME280;16267;48.194;11.546;2023-05-09T02:34:15;96239.97;;;12.30;69.50
29239;BME280;16267;48.194;11.546;2023-05-09T02:36:42;96245.03;;;12.28;69.12
29239;BME280;16267;48.194;11.546;2023-05-09T02:39:08;96248.53;;;12.25;69.46
29239;BME280;16267;48.194;11.546;2023-05-09T02:41:34;96237.78;;;12.21;69.38
29239;BME280;16267;48.194;11.546;2023-05-09T02:44:00;96238.59;;;12.18;69.52
29239;BME280;16267;48.194;11.546;2023-05-09T02:46:25;96234.78;;;12.16;69.05
29239;BME280;16267;48.194;11.546;2023-05-09T02:48:55;96236.34;;;12.13;69.57
29239;BME280;16267;48.194;11.546;2023-05-09T02:51:21;96236.00;;;12.11;69.22
29239;BME280;16267;48.194;11.546;2023-05-09T02:53:47;96235.66;;;12.09;69.33
29239;BME280;16267;48.194;11.546;2023-05-09T02:56:12;96227.22;;;12.07;69.57
29239;BME280;16267;48.194;11.546;2023-05-09T02:58:38;96227.63;;;12.05;69.58
29239;BME280;16267;48.194;11.546;2023-05-09T03:01:04;96229.94;;;12.03;69.70
29239;BME280;16267;48.194;11.546;2023-05-09T03:03:30;96223.44;;;12.01;69.51
29239;BME280;16267;48.194;11.546;2023-05-09T03:05:58;96231.91;;;11.99;69.44
29239;BME280;16267;48.194;11.546;2023-05-09T03:08:24;96234.25;;;11.97;69.40
29239;BME280;16267;48.194;11.546;2023-05-09T03:10:49;96228.50;;;11.95;69.51
29239;BME280;16267;48.194;11.546;2023-05-09T03:13:15;96235.44;;;11.93;69.33
29239;BME280;16267;48.194;11.546;2023-05-09T03:15:41;96236.63;;;11.92;69.54
29239;BME280;16267;48.194;11.546;2023-05-09T03:18:07;96235.50;;;11.89;69.67
29239;BME280;16267;48.194;11.546;2023-05-09T03:20:32;96235.88;;;11.88;69.79
29239;BME280;16267;48.194;11.546;2023-05-09T03:22:58;96234.38;;;11.87;70.08
29239;BME280;16267;48.194;11.546;2023-05-09T03:25:24;96232.03;;;11.85;69.94
29239;BME280;16267;48.194;11.546;2023-05-09T03:27:50;96235.53;;;11.82;70.17
29239;BME280;16267;48.194;11.546;2023-05-09T03:30:16;96229.78;;;11.80;70.36
29239;BME280;16267;48.194;11.546;2023-05-09T03:32:42;96228.28;;;11.79;70.38
29239;BME280;16267;48.194;11.546;2023-05-09T03:35:07;96225.22;;;11.77;70.43
29239;BME280;16267;48.194;11.546;2023-05-09T03:37:33;96223.72;;;11.76;70.55
29239;BME280;16267;48.194;11.546;2023-05-09T03:39:59;96217.22;;;11.73;70.59
29239;BME280;16267;48.194;11.546;2023-05-09T03:42:24;96217.59;;;11.72;70.85
29239;BME280;16267;48.194;11.546;2023-05-09T03:44:50;96218.75;;;11.71;70.70
29239;BME280;16267;48.194;11.546;2023-05-09T03:47:17;96224.53;;;11.69;70.75
29239;BME280;16267;48.194;11.546;2023-05-09T03:49:42;96221.50;;;11.67;71.04
29239;BME280;16267;48.194;11.546;2023-05-09T03:52:10;96223.06;;;11.65;71.40
29239;BME280;16267;48.194;11.546;2023-05-09T03:54:36;96220.00;;;11.63;71.60
29239;BME280;16267;48.194;11.546;2023-05-09T03:57:01;96220.41;;;11.61;71.94
29239;BME280;16267;48.194;11.546;2023-05-09T03:59:27;96218.13;;;11.59;72.09
29239;BME280;16267;48.194;11.546;2023-05-09T04:01:53;96213.53;;;11.56;72.09
29239;BME280;16267;48.194;11.546;2023-05-09T04:04:19;96219.31;;;11.55;72.23
29239;BME280;16267;48.194;11.546;2023-05-09T04:06:45;96223.19;;;11.54;72.13
29239;BME280;16267;48.194;11.546;2023-05-09T04:09:11;96219.72;;;11.53;72.37
29239;BME280;16267;48.194;11.546;2023-05-09T04:11:37;96225.50;;;11.52;72.17
29239;BME280;16267;48.194;11.546;2023-05-09T04:14:03;96231.63;;;11.52;72.23
29239;BME280;16267;48.194;11.546;2023-05-09T04:16:32;96222.03;;;11.51;72.10
29239;BME280;16267;48.194;11.546;2023-05-09T04:18:57;96230.47;;;11.53;72.34
29239;BME280;16267;48.194;11.546;2023-05-09T04:21:23;96230.47;;;11.53;72.27
29239;BME280;16267;48.194;11.546;2023-05-09T04:23:49;96231.25;;;11.54;72.75
29239;BME280;16267;48.194;11.546;2023-05-09T04:26:14;96230.06;;;11.55;72.79
29239;BME280;16267;48.194;11.546;2023-05-09T04:28:42;96227.38;;;11.55;72.98
29239;BME280;16267;48.194;11.546;2023-05-09T04:31:08;96230.06;;;11.55;73.65
29239;BME280;16267;48.194;11.546;2023-05-09T04:33:34;96228.13;;;11.55;73.07
29239;BME280;16267;48.194;11.546;2023-05-09T04:36:00;96224.31;;;11.56;72.58
29239;BME280;16267;48.194;11.546;2023-05-09T04:38:26;96228.88;;;11.59;72.71
29239;BME280;16267;48.194;11.546;2023-05-09T04:40:52;96224.25;;;11.60;72.82
29239;BME280;16267;48.194;11.546;2023-05-09T04:43:18;96220.41;;;11.61;72.25
29239;BME280;16267;48.194;11.546;2023-05-09T04:45:44;96225.38;;;11.63;72.56
29239;BME280;16267;48.194;11.546;2023-05-09T04:48:10;96217.75;;;11.57;71.33
29239;BME280;16267;48.194;11.546;2023-05-09T04:50:36;96212.38;;;11.57;71.75
29239;BME280;16267;48.194;11.546;2023-05-09T04:53:02;96213.50;;;11.60;71.88
29239;BME280;16267;48.194;11.546;2023-05-09T04:55:27;96219.63;;;11.60;71.86
29239;BME280;16267;48.194;11.546;2023-05-09T04:57:53;96208.88;;;11.60;71.25
29239;BME280;16267;48.194;11.546;2023-05-09T05:00:19;96217.31;;;11.63;71.54
29239;BME280;16267;48.194;11.546;2023-05-09T05:02:44;96216.59;;;11.58;70.70
29239;BME280;16267;48.194;11.546;2023-05-09T05:05:11;96212.34;;;11.61;71.06
29239;BME280;16267;48.194;11.546;2023-05-09T05:07:36;96216.94;;;11.64;71.40
29239;BME280;16267;48.194;11.546;2023-05-09T05:10:02;96215.75;;;11.65;70.87
29239;BME280;16267;48.194;11.546;2023-05-09T05:12:30;96208.06;;;11.64;70.37
29239;BME280;16267;48.194;11.546;2023-05-09T05:14:56;96209.56;;;11.68;70.18
29239;BME280;16267;48.194;11.546;2023-05-09T05:17:22;96211.50;;;11.68;69.61
29239;BME280;16267;48.194;11.546;2023-05-09T05:19:49;96218.38;;;11.72;70.09
29239;BME280;16267;48.194;11.546;2023-05-09T05:22:14;96211.41;;;11.75;70.05
29239;BME280;16267;48.194;11.546;2023-05-09T05:24:40;96204.47;;;11.77;70.08
29239;BME280;16267;48.194;11.546;2023-05-09T05:27:06;96202.50;;;11.81;69.35
29239;BME280;16267;48.194;11.546;2023-05-09T05:29:32;96208.25;;;11.87;69.87
29239;BME280;16267;48.194;11.546;2023-05-09T05:31:57;96205.88;;;11.93;69.33
29239;BME280;16267;48.194;11.546;2023-05-09T05:34:23;96201.19;;;11.97;69.20
29239;BME280;16267;48.194;11.546;2023-05-09T05:36:49;96198.44;;;12.04;69.43
29239;BME280;16267;48.194;11.546;2023-05-09T05:39:14;96201.47;;;12.06;68.75
29239;BME280;16267;48.194;11.546;2023-05-09T05:41:40;96203.66;;;12.15;68.91
29239;BME280;16267;48.194;11.546;2023-05-09T05:44:06;96205.09;;;12.23;68.06
29239;BME280;16267;48.194;11.546;2023-05-09T05:46:31;96203.41;;;12.33;68.02
29239;BME280;16267;48.194;11.546;2023-05-09T05:48:57;96201.75;;;12.42;68.14
29239;BME280;16267;48.194;11.546;2023-05-09T05:51:23;96205.06;;;12.54;67.93
29239;BME280;16267;48.194;11.546;2023-05-09T05:53:48;96192.25;;;12.61;66.57
29239;BME280;16267;48.194;11.546;2023-05-09T05:56:15;96193.63;;;12.73;67.10
29239;BME280;16267;48.194;11.546;2023-05-09T05:58:40;96198.13;;;12.80;66.19
29239;BME280;16267;48.194;11.546;2023-05-09T06:01:06;96181.78;;;12.90;65.83
29239;BME280;16267;48.194;11.546;2023-05-09T06:03:32;96187.06;;;12.98;65.36
29239;BME280;16267;48.194;11.546;2023-05-09T06:05:58;96184.88;;;13.12;65.66
29239;BME280;16267;48.194;11.546;2023-05-09T06:08:23;96179.66;;;13.25;65.37
29239;BME280;16267;48.194;11.546;2023-05-09T06:10:49;96170.22;;;13.37;65.57
29239;BME280;16267;48.194;11.546;2023-05-09T06:13:15;96172.03;;;13.44;64.44
29239;BME280;16267;48.194;11.546;2023-05-09T06:15:40;96162.31;;;13.50;64.35
29239;BME280;16267;48.194;11.546;2023-05-09T06:18:06;96162.06;;;13.60;63.69
29239;BME280;16267;48.194;11.546;2023-05-09T06:20:33;96164.91;;;13.73;63.84
29239;BME280;16267;48.194;11.546;2023-05-09T06:23:00;96167.00;;;13.86;63.90
29239;BME280;16267;48.194;11.546;2023-05-09T06:25:26;96163.66;;;13.98;63.16
29239;BME280;16267;48.194;11.546;2023-05-09T06:27:51;96161.88;;;14.07;62.67
29239;BME280;16267;48.194;11.546;2023-05-09T06:30:17;96163.97;;;14.20;63.22
29239;BME280;16267;48.194;11.546;2023-05-09T06:32:43;96152.66;;;14.25;62.49
29239;BME280;16267;48.194;11.546;2023-05-09T06:35:08;96160.59;;;14.32;62.12
29239;BME280;16267;48.194;11.546;2023-05-09T06:37:34;96156.28;;;14.35;62.24
29239;BME280;16267;48.194;11.546;2023-05-09T06:40:00;96153.34;;;14.45;62.96
29239;BME280;16267;48.194;11.546;2023-05-09T06:42:26;96150.84;;;14.55;62.96
29239;BME280;16267;48.194;11.546;2023-05-09T06:44:52;96149.09;;;14.64;62.54
29239;BME280;16267;48.194;11.546;2023-05-09T06:47:18;96148.16;;;14.71;62.32
29239;BME280;16267;48.194;11.546;2023-05-09T06:49:44;96142.09;;;14.67;60.83
29239;BME280;16267;48.194;11.546;2023-05-09T06:52:10;96138.03;;;14.75;61.70
29239;BME280;16267;48.194;11.546;2023-05-09T06:54:37;96137.84;;;14.82;60.74
29239;BME280;16267;48.194;11.546;2023-05-09T06:57:03;96146.03;;;14.95;61.73
29239;BME280;16267;48.194;11.546;2023-05-09T06:59:29;96136.47;;;15.07;61.26
29239;BME280;16267;48.194;11.546;2023-05-09T07:01:55;96133.06;;;15.19;60.90
29239;BME280;16267;48.194;11.546;2023-05-09T07:04:21;96131.78;;;15.24;60.62
29239;BME280;16267;48.194;11.546;2023-05-09T07:06:46;96135.66;;;15.23;58.63
29239;BME280;16267;48.194;11.546;2023-05-09T07:09:12;96127.28;;;15.33;59.93
29239;BME280;16267;48.194;11.546;2023-05-09T07:11:41;96134.19;;;15.34;60.29
29239;BME280;16267;48.194;11.546;2023-05-09T07:14:07;96129.31;;;15.29;59.62
29239;BME280;16267;48.194;11.546;2023-05-09T07:16:33;96129.13;;;15.36;61.07
29239;BME280;16267;48.194;11.546;2023-05-09T07:18:58;96123.53;;;15.44;60.55
29239;BME280;16267;48.194;11.546;2023-05-09T07:21:25;96126.88;;;15.48;60.31
29239;BME280;16267;48.194;11.546;2023-05-09T07:23:50;96125.69;;;15.49;60.71
29239;BME280;16267;48.194;11.546;2023-05-09T07:26:16;96121.25;;;15.42;60.34
29239;BME280;16267;48.194;11.546;2023-05-09T07:28:43;96118.59;;;15.55;62.17
29239;BME280;16267;48.194;11.546;2023-05-09T07:31:09;96107.44;;;15.66;62.05
29239;BME280;16267;48.194;11.546;2023-05-09T07:33:34;96111.19;;;15.72;61.82
29239;BME280;16267;48.194;11.546;2023-05-09T07:36:00;96105.53;;;15.79;61.24
29239;BME280;16267;48.194;11.546;2023-05-09T07:38:26;96102.53;;;15.77;60.21
29239;BME280;16267;48.194;11.546;2023-05-09T07:40:52;96109.69;;;15.83;61.41
29239;BME280;16267;48.194;11.546;2023-05-09T07:43:18;96097.13;;;15.90;61.32
29239;BME280;16267;48.194;11.546;2023-05-09T07:45:44;96093.88;;;15.95;62.07
29239;BME280;16267;48.194;11.546;2023-05-09T07:48:09;96098.53;;;15.94;61.71
29239;BME280;16267;48.194;11.546;2023-05-09T07:50:35;96089.09;;;15.99;61.78
29239;BME280;16267;48.194;11.546;2023-05-09T07:53:01;96089.03;;;16.02;61.31
29239;BME280;16267;48.194;11.546;2023-05-09T07:55:27;96088.47;;;16.08;61.08
29239;BME280;16267;48.194;11.546;2023-05-09T07:57:52;96089.44;;;16.14;61.31
29239;BME280;16267;48.194;11.546;2023-05-09T08:00:18;96086.94;;;16.19;60.30
29239;BME280;16267;48.194;11.546;2023-05-09T08:02:50;96081.75;;;16.25;59.84
29239;BME280;16267;48.194;11.546;2023-05-09T08:05:16;96082.28;;;16.33;59.01
29239;BME280;16267;48.194;11.546;2023-05-09T08:07:42;96079.66;;;16.42;60.74
29239;BME280;16267;48.194;11.546;2023-05-09T08:10:08;96075.97;;;16.48;59.87
29239;BME280;16267;48.194;11.546;2023-05-09T08:12:34;96071.19;;;16.53;59.32
29239;BME280;16267;48.194;11.546;2023-05-09T08:15:00;96073.38;;;16.58;60.05
29239;BME280;16267;48.194;11.546;2023-05-09T08:17:25;96064.78;;;16.59;58.68
29239;BME280;16267;48.194;11.546;2023-05-09T08:19:51;96061.97;;;16.63;59.21
29239;BME280;16267;48.194;11.546;2023-05-09T08:22:19;96059.00;;;16.70;59.28
29239;BME280;16267;48.194;11.546;2023-05-09T08:24:45;96055.41;;;16.73;59.61
29239;BME280;16267;48.194;11.546;2023-05-09T08:27:12;96052.06;;;16.82;59.40
29239;BME280;16267;48.194;11.546;2023-05-09T08:29:39;96049.25;;;16.85;59.36
29239;BME280;16267;48.194;11.546;2023-05-09T08:32:05;96051.81;;;16.89;58.81
29239;BME280;16267;48.194;11.546;2023-05-09T08:34:31;96045.19;;;16.90;59.18
29239;BME280;16267;48.194;11.546;2023-05-09T08:37:00;96041.75;;;16.89;58.84
29239;BME280;16267;48.194;11.546;2023-05-09T08:39:25;96041.75;;;16.89;59.42
29239;BME280;16267;48.194;11.546;2023-05-09T08:41:55;96038.78;;;16.97;59.55
29239;BME280;16267;48.194;11.546;2023-05-09T08:44:22;96032.34;;;17.03;60.13
29239;BME280;16267;48.194;11.546;2023-05-09T08:46:51;96029.06;;;17.08;60.64
29239;BME280;16267;48.194;11.546;2023-05-09T08:49:22;96033.66;;;17.21;59.60
29239;BME280;16267;48.194;11.546;2023-05-09T08:51:49;96029.97;;;17.27;59.64
29239;BME280;16267;48.194;11.546;2023-05-09T08:54:15;96023.06;;;17.35;60.28
29239;BME280;16267;48.194;11.546;2023-05-09T08:56:41;96026.72;;;17.42;60.32
29239;BME280;16267;48.194;11.546;2023-05-09T08:59:08;96018.25;;;17.39;58.87
29239;BME280;16267;48.194;11.546;2023-05-09T09:01:34;96014.72;;;17.52;59.73
29239;BME280;16267;48.194;11.546;2023-05-09T09:04:02;95992.31;;;17.60;59.68
29239;BME280;16267;48.194;11.546;2023-05-09T09:06:32;95994.44;;;17.66;60.09
29239;BME280;16267;48.194;11.546;2023-05-09T09:08:58;95992.50;;;17.75;58.81
29239;BME280;16267;48.194;11.546;2023-05-09T09:11:25;95994.84;;;17.86;58.76
29239;BME280;16267;48.194;11.546;2023-05-09T09:13:52;95989.13;;;17.93;57.72
29239;BME280;16267;48.194;11.546;2023-05-09T09:16:21;95984.47;;;18.03;58.56
29239;BME280;16267;48.194;11.546;2023-05-09T09:18:47;95981.00;;;18.12;58.78
29239;BME280;16267;48.194;11.546;2023-05-09T09:21:17;95990.38;;;18.20;58.77
29239;BME280;16267;48.194;11.546;2023-05-09T09:23:45;95984.22;;;18.28;58.68
29239;BME280;16267;48.194;11.546;2023-05-09T09:26:12;95991.19;;;18.39;56.98
29239;BME280;16267;48.194;11.546;2023-05-09T09:28:39;95984.09;;;18.41;56.48
29239;BME280;16267;48.194;11.546;2023-05-09T09:31:24;95973.69;;;18.49;55.92
29239;BME280;16267;48.194;11.546;2023-05-09T09:33:50;95974.59;;;18.55;55.95
29239;BME280;16267;48.194;11.546;2023-05-09T09:36:26;95970.06;;;18.52;55.83
29239;BME280;16267;48.194;11.546;2023-05-09T09:38:59;95956.31;;;18.56;55.91
29239;BME280;16267;48.194;11.546;2023-05-09T09:41:40;95952.09;;;18.64;56.06
29239;BME280;16267;48.194;11.546;2023-05-09T09:44:11;95952.97;;;18.70;56.13
29239;BME280;16267;48.194;11.546;2023-05-09T09:46:41;95942.59;;;18.78;55.73
29239;BME280;16267;48.194;11.546;2023-05-09T09:49:16;95948.00;;;18.87;55.68
29239;BME280;16267;48.194;11.546;2023-05-09T09:51:42;95946.78;;;18.97;54.52
29239;BME280;16267;48.194;11.546;2023-05-09T09:54:11;95946.00;;;19.06;54.16
29239;BME280;16267;48.194;11.546;2023-05-09T09:56:39;95937.53;;;19.13;54.52
29239;BME280;16267;48.194;11.546;2023-05-09T09:59:25;95921.94;;;19.23;54.25
29239;BME280;16267;48.194;11.546;2023-05-09T10:04:30;95917.94;;;19.42;53.14
29239;BME280;16267;48.194;11.546;2023-05-09T10:07:05;95917.31;;;19.47;52.85
29239;BME280;16267;48.194;11.546;2023-05-09T10:09:34;95915.03;;;19.55;52.49
29239;BME280;16267;48.194;11.546;2023-05-09T10:12:06;95916.38;;;19.59;51.61
29239;BME280;16267;48.194;11.546;2023-05-09T10:14:35;95916.78;;;19.67;51.95
29239;BME280;16267;48.194;11.546;2023-05-09T10:17:04;95901.50;;;19.70;51.61
29239;BME280;16267;48.194;11.546;2023-05-09T10:19:31;95899.84;;;19.63;52.00
29239;BME280;16267;48.194;11.546;2023-05-09T10:22:02;95892.78;;;19.56;51.78
29239;BME280;16267;48.194;11.546;2023-05-09T10:27:26;95885.91;;;19.70;52.33
29239;BME280;16267;48.194;11.546;2023-05-09T10:30:22;95883.78;;;19.74;51.80
29239;BME280;16267;48.194;11.546;2023-05-09T10:33:07;95881.19;;;19.80;52.27
29239;BME280;16267;48.194;11.546;2023-05-09T10:35:45;95873.88;;;19.86;51.92
29239;BME280;16267;48.194;11.546;2023-05-09T10:38:12;95874.75;;;19.92;52.07
29239;BME280;16267;48.194;11.546;2023-05-09T10:40:42;95872.59;;;19.96;51.52
29239;BME280;16267;48.194;11.546;2023-05-09T10:43:10;95859.09;;;20.02;51.19
29239;BME280;16267;48.194;11.546;2023-05-09T10:45:37;95859.41;;;20.04;51.17
29239;BME280;16267;48.194;11.546;2023-05-09T10:48:05;95855.75;;;20.07;51.02
29239;BME280;16267;48.194;11.546;2023-05-09T10:50:34;95860.81;;;20.14;50.92
29239;BME280;16267;48.194;11.546;2023-05-09T10:55:56;95827.50;;;20.34;50.55
29239;BME280;16267;48.194;11.546;2023-05-09T10:58:31;95834.66;;;20.46;50.45
29239;BME280;16267;48.194;11.546;2023-05-09T11:01:03;95829.88;;;20.56;50.81
29239;BME280;16267;48.194;11.546;2023-05-09T11:03:56;95827.38;;;20.67;50.95
29239;BME280;16267;48.194;11.546;2023-05-09T11:09:37;95815.13;;;20.78;51.02
29239;BME280;16267;48.194;11.546;2023-05-09T11:14:49;95801.41;;;20.87;50.56
29239;BME280;16267;48.194;11.546;2023-05-09T11:22:40;95784.59;;;21.09;49.51
29239;BME280;16267;48.194;11.546;2023-05-09T11:27:43;95778.09;;;21.21;49.59
29239;BME280;16267;48.194;11.546;2023-05-09T11:30:13;95769.00;;;21.30;49.58
29239;BME280;16267;48.194;11.546;2023-05-09T11:32:54;95768.66;;;21.37;49.82
29239;BME280;16267;48.194;11.546;2023-05-09T11:35:23;95765.50;;;21.44;48.93
29239;BME280;16267;48.194;11.546;2023-05-09T11:38:06;95767.09;;;21.51;48.98
29239;BME280;16267;48.194;11.546;2023-05-09T11:40:33;95761.47;;;21.60;48.70
29239;BME280;16267;48.194;11.546;2023-05-09T11:43:00;95760.31;;;21.67;48.55
29239;BME280;16267;48.194;11.546;2023-05-09T11:45:29;95760.38;;;21.72;47.42
29239;BME280;16267;48.194;11.546;2023-05-09T11:47:57;95755.47;;;21.76;47.30
29239;BME280;16267;48.194;11.546;2023-05-09T11:50:23;95751.50;;;21.77;47.23
29239;BME280;16267;48.194;11.546;2023-05-09T11:52:50;95746.78;;;21.78;47.61
29239;BME280;16267;48.194;11.546;2023-05-09T11:55:18;95738.13;;;21.79;47.96
29239;BME280;16267;48.194;11.546;2023-05-09T11:57:53;95739.41;;;21.84;49.38
29239;BME280;16267;48.194;11.546;2023-05-09T12:00:24;95731.00;;;21.88;47.42
29239;BME280;16267;48.194;11.546;2023-05-09T12:02:51;95735.22;;;21.89;46.91
29239;BME280;16267;48.194;11.546;2023-05-09T12:05:19;95728.69;;;21.80;47.25
29239;BME280;16267;48.194;11.546;2023-05-09T12:07:46;95731.22;;;21.84;47.57
29239;BME280;16267;48.194;11.546;2023-05-09T12:10:15;95724.50;;;21.85;47.05
29239;BME280;16267;48.194;11.546;2023-05-09T12:12:50;95720.53;;;21.86;48.04
29239;BME280;16267;48.194;11.546;2023-05-09T12:15:16;95707.09;;;21.82;46.40
29239;BME280;16267;48.194;11.546;2023-05-09T12:17:44;95709.31;;;21.78;46.05
29239;BME280;16267;48.194;11.546;2023-05-09T12:20:10;95691.41;;;21.77;46.68
29239;BME280;16267;48.194;11.546;2023-05-09T12:22:36;95704.78;;;21.75;48.05
29239;BME280;16267;48.194;11.546;2023-05-09T12:25:08;95696.13;;;21.77;48.04
29239;BME280;16267;48.194;11.546;2023-05-09T12:27:36;95686.91;;;21.74;47.39
29239;BME280;16267;48.194;11.546;2023-05-09T12:30:07;95687.88;;;21.71;47.47
29239;BME280;16267;48.194;11.546;2023-05-09T12:32:35;95678.66;;;21.69;47.34
29239;BME280;16267;48.194;11.546;2023-05-09T12:35:02;95672.72;;;21.70;48.26
29239;BME280;16267;48.194;11.546;2023-05-09T12:37:30;95664.78;;;21.72;47.53
29239;BME280;16267;48.194;11.546;2023-05-09T12:40:08;95662.81;;;21.73;47.74
29239;BME280;16267;48.194;11.546;2023-05-09T12:42:35;95667.31;;;21.76;47.38
29239;BME280;16267;48.194;11.546;2023-05-09T12:45:02;95659.13;;;21.76;48.25
29239;BME280;16267;48.194;11.546;2023-05-09T12:47:30;95653.16;;;21.77;46.99
29239;BME280;16267;48.194;11.546;2023-05-09T12:49:58;95649.47;;;21.80;47.36
29239;BME280;16267;48.194;11.546;2023-05-09T12:52:24;95654.19;;;21.80;46.75
29239;BME280;16267;48.194;11.546;2023-05-09T12:54:52;95646.97;;;21.77;47.92
29239;BME280;16267;48.194;11.546;2023-05-09T12:57:23;95640.06;;;21.81;47.28
29239;BME280;16267;48.194;11.546;2023-05-09T12:59:49;95626.88;;;21.80;46.50
29239;BME280;16267;48.194;11.546;2023-05-09T13:02:15;95630.84;;;21.79;46.57
29239;BME280;16267;48.194;11.546;2023-05-09T13:04:41;95632.31;;;21.80;47.34
29239;BME280;16267;48.194;11.546;2023-05-09T13:07:08;95630.56;;;21.77;47.01
29239;BME280;16267;48.194;11.546;2023-05-09T13:09:53;95621.41;;;21.80;48.48
29239;BME280;16267;48.194;11.546;2023-05-09T13:12:21;95616.44;;;21.78;47.43
29239;BME280;16267;48.194;11.546;2023-05-09T13:14:47;95621.41;;;21.80;47.18
29239;BME280;16267;48.194;11.546;2023-05-09T13:17:12;95617.47;;;21.81;46.74
29239;BME280;16267;48.194;11.546;2023-05-09T13:19:38;95612.00;;;21.81;47.36
29239;BME280;16267;48.194;11.546;2023-05-09T13:22:04;95606.78;;;21.83;47.46
29239;BME280;16267;48.194;11.546;2023-05-09T13:24:30;95602.97;;;21.75;47.30
29239;BME280;16267;48.194;11.546;2023-05-09T13:26:56;95604.00;;;21.77;47.54